sensor_id;sensor_type;location;lat;lon;timestamp;P1;durP1;ratioP1;P2;durP2;ratioP2
9260;SDS011;4667;42.726;23.252;2023-05-07T00:00:53;5.20;;;3.80;;
9260;SDS011;4667;42.726;23.252;2023-05-07T00:03:20;5.57;;;4.93;;
9260;SDS011;4667;42.726;23.252;2023-05-07T00:05:47;7.07;;;4.73;;
9260;SDS011;4667;42.726;23.252;2023-05-07T00:08:13;5.87;;;4.03;;
9260;SDS011;4667;42.726;23.252;2023-05-07T00:10:42;6.00;;;3.70;;
9260;SDS011;4667;42.726;23.252;2023-05-07T00:13:09;6.93;;;4.50;;
9260;SDS011;4667;42.726;23.252;2023-05-07T00:15:35;5.13;;;3.73;;
9260;SDS011;4667;42.726;23.252;2023-05-07T00:18:02;5.77;;;5.17;;
9260;SDS011;4667;42.726;23.252;2023-05-07T00:20:29;6.13;;;4.60;;
9260;SDS011;4667;42.726;23.252;2023-05-07T00:22:56;7.13;;;4.77;;
9260;SDS011;4667;42.726;23.252;2023-05-07T00:25:23;6.70;;;5.33;;
9260;SDS011;4667;42.726;23.252;2023-05-07T00:27:51;6.33;;;5.47;;
9260;SDS011;4667;42.726;23.252;2023-05-07T00:30:18;5.77;;;4.30;;
9260;SDS011;4667;42.726;23.252;2023-05-07T00:32:45;6.53;;;4.77;;
9260;SDS011;4667;42.726;23.252;2023-05-07T00:35:13;6.20;;;4.73;;
9260;SDS011;4667;42.726;23.252;2023-05-07T00:37:40;5.67;;;4.97;;
9260;SDS011;4667;42.726;23.252;2023-05-07T00:40:07;8.43;;;5.00;;
9260;SDS011;4667;42.726;23.252;2023-05-07T00:42:34;6.33;;;4.43;;
9260;SDS011;4667;42.726;23.252;2023-05-07T00:45:03;5.90;;;4.57;;
9260;SDS011;4667;42.726;23.252;2023-05-07T00:47:30;6.77;;;5.23;;
9260;SDS011;4667;42.726;23.252;2023-05-07T00:49:57;4.97;;;4.47;;
9260;SDS011;4667;42.726;23.252;2023-05-07T00:52:25;7.13;;;5.17;;
9260;SDS011;4667;42.726;23.252;2023-05-07T00:54:53;7.77;;;4.67;;
9260;SDS011;4667;42.726;23.252;2023-05-07T00:57:20;6.57;;;4.70;;
9260;SDS011;4667;42.726;23.252;2023-05-07T00:59:48;6.27;;;4.73;;
9260;SDS011;4667;42.726;23.252;2023-05-07T01:02:16;6.77;;;4.50;;
9260;SDS011;4667;42.726;23.252;2023-05-07T01:04:53;6.10;;;3.97;;
9260;SDS011;4667;42.726;23.252;2023-05-07T01:07:21;5.43;;;4.83;;
9260;SDS011;4667;42.726;23.252;2023-05-07T01:09:48;5.73;;;4.77;;
9260;SDS011;4667;42.726;23.252;2023-05-07T01:12:16;6.47;;;4.53;;
9260;SDS011;4667;42.726;23.252;2023-05-07T01:14:43;4.93;;;4.17;;
9260;SDS011;4667;42.726;23.252;2023-05-07T01:17:10;8.17;;;5.10;;
9260;SDS011;4667;42.726;23.252;2023-05-07T01:19:38;5.97;;;4.17;;
9260;SDS011;4667;42.726;23.252;2023-05-07T01:22:07;5.97;;;4.30;;
9260;SDS011;4667;42.726;23.252;2023-05-07T01:24:37;6.10;;;4.10;;
9260;SDS011;4667;42.726;23.252;2023-05-07T01:27:04;5.67;;;4.47;;
9260;SDS011;4667;42.726;23.252;2023-05-07T01:29:31;6.43;;;4.63;;
9260;SDS011;4667;42.726;23.252;2023-05-07T01:31:58;7.50;;;4.07;;
9260;SDS011;4667;42.726;23.252;2023-05-07T01:34:27;7.67;;;5.17;;
9260;SDS011;4667;42.726;23.252;2023-05-07T01:36:56;7.23;;;4.87;;
9260;SDS011;4667;42.726;23.252;2023-05-07T01:39:25;7.97;;;5.20;;
9260;SDS011;4667;42.726;23.252;2023-05-07T01:41:56;5.90;;;4.80;;
9260;SDS011;4667;42.726;23.252;2023-05-07T01:44:23;6.30;;;4.37;;
9260;SDS011;4667;42.726;23.252;2023-05-07T01:46:50;6.87;;;4.47;;
9260;SDS011;4667;42.726;23.252;2023-05-07T01:49:17;7.17;;;4.60;;
9260;SDS011;4667;42.726;23.252;2023-05-07T01:51:44;8.27;;;4.30;;
9260;SDS011;4667;42.726;23.252;2023-05-07T01:54:11;5.23;;;4.27;;
9260;SDS011;4667;42.726;23.252;2023-05-07T01:56:38;7.37;;;5.53;;
9260;SDS011;4667;42.726;23.252;2023-05-07T01:59:06;6.57;;;4.30;;
9260;SDS011;4667;42.726;23.252;2023-05-07T02:01:33;6.60;;;5.27;;
9260;SDS011;4667;42.726;23.252;2023-05-07T02:03:59;7.03;;;4.27;;
9260;SDS011;4667;42.726;23.252;2023-05-07T02:06:26;6.07;;;4.20;;
9260;SDS011;4667;42.726;23.252;2023-05-07T02:08:53;5.13;;;4.30;;
9260;SDS011;4667;42.726;23.252;2023-05-07T02:11:20;7.07;;;4.17;;
9260;SDS011;4667;42.726;23.252;2023-05-07T02:13:46;6.40;;;4.60;;
9260;SDS011;4667;42.726;23.252;2023-05-07T02:16:14;5.03;;;4.50;;
9260;SDS011;4667;42.726;23.252;2023-05-07T02:18:41;6.80;;;4.60;;
9260;SDS011;4667;42.726;23.252;2023-05-07T02:21:08;4.57;;;4.07;;
9260;SDS011;4667;42.726;23.252;2023-05-07T02:23:35;4.63;;;4.23;;
9260;SDS011;4667;42.726;23.252;2023-05-07T02:26:04;5.67;;;4.90;;
9260;SDS011;4667;42.726;23.252;2023-05-07T02:28:30;6.90;;;4.33;;
9260;SDS011;4667;42.726;23.252;2023-05-07T02:31:00;7.60;;;4.97;;
9260;SDS011;4667;42.726;23.252;2023-05-07T02:33:30;5.40;;;4.43;;
9260;SDS011;4667;42.726;23.252;2023-05-07T02:35:56;7.13;;;4.63;;
9260;SDS011;4667;42.726;23.252;2023-05-07T02:38:23;8.80;;;5.43;;
9260;SDS011;4667;42.726;23.252;2023-05-07T02:40:50;6.57;;;5.17;;
9260;SDS011;4667;42.726;23.252;2023-05-07T02:43:17;6.03;;;4.83;;
9260;SDS011;4667;42.726;23.252;2023-05-07T02:45:43;6.03;;;4.37;;
9260;SDS011;4667;42.726;23.252;2023-05-07T02:48:10;6.27;;;4.93;;
9260;SDS011;4667;42.726;23.252;2023-05-07T02:50:38;5.03;;;4.53;;
9260;SDS011;4667;42.726;23.252;2023-05-07T02:53:05;6.17;;;4.43;;
9260;SDS011;4667;42.726;23.252;2023-05-07T02:55:32;5.53;;;4.43;;
9260;SDS011;4667;42.726;23.252;2023-05-07T02:57:59;5.30;;;4.47;;
9260;SDS011;4667;42.726;23.252;2023-05-07T03:00:26;6.63;;;5.07;;
9260;SDS011;4667;42.726;23.252;2023-05-07T03:02:52;7.90;;;5.30;;
9260;SDS011;4667;42.726;23.252;2023-05-07T03:05:19;7.17;;;5.40;;
9260;SDS011;4667;42.726;23.252;2023-05-07T03:07:47;8.13;;;4.67;;
9260;SDS011;4667;42.726;23.252;2023-05-07T03:10:14;7.33;;;4.63;;
9260;SDS011;4667;42.726;23.252;2023-05-07T03:12:41;5.17;;;4.10;;
9260;SDS011;4667;42.726;23.252;2023-05-07T03:15:08;6.80;;;4.60;;
9260;SDS011;4667;42.726;23.252;2023-05-07T03:17:36;5.30;;;4.53;;
9260;SDS011;4667;42.726;23.252;2023-05-07T03:20:03;5.67;;;5.07;;
9260;SDS011;4667;42.726;23.252;2023-05-07T03:22:32;5.77;;;4.47;;
9260;SDS011;4667;42.726;23.252;2023-05-07T03:25:00;6.77;;;4.57;;
9260;SDS011;4667;42.726;23.252;2023-05-07T03:27:27;6.87;;;5.43;;
9260;SDS011;4667;42.726;23.252;2023-05-07T03:29:53;6.17;;;4.87;;
9260;SDS011;4667;42.726;23.252;2023-05-07T03:32:20;5.27;;;4.03;;
9260;SDS011;4667;42.726;23.252;2023-05-07T03:34:47;6.43;;;5.03;;
9260;SDS011;4667;42.726;23.252;2023-05-07T03:37:14;11.17;;;5.00;;
9260;SDS011;4667;42.726;23.252;2023-05-07T03:39:40;7.37;;;5.73;;
9260;SDS011;4667;42.726;23.252;2023-05-07T03:42:08;8.57;;;5.27;;
9260;SDS011;4667;42.726;23.252;2023-05-07T03:44:35;6.47;;;5.23;;
9260;SDS011;4667;42.726;23.252;2023-05-07T03:47:02;6.60;;;5.30;;
9260;SDS011;4667;42.726;23.252;2023-05-07T03:49:29;6.53;;;4.47;;
9260;SDS011;4667;42.726;23.252;2023-05-07T03:51:56;6.13;;;4.80;;
9260;SDS011;4667;42.726;23.252;2023-05-07T03:54:22;6.67;;;4.50;;
9260;SDS011;4667;42.726;23.252;2023-05-07T03:56:49;8.53;;;5.37;;
9260;SDS011;4667;42.726;23.252;2023-05-07T03:59:17;6.57;;;4.77;;
9260;SDS011;4667;42.726;23.252;2023-05-07T04:01:44;7.80;;;5.43;;
9260;SDS011;4667;42.726;23.252;2023-05-07T04:04:11;7.60;;;5.17;;
9260;SDS011;4667;42.726;23.252;2023-05-07T04:06:38;6.27;;;4.87;;
9260;SDS011;4667;42.726;23.252;2023-05-07T04:09:04;7.17;;;4.57;;
9260;SDS011;4667;42.726;23.252;2023-05-07T04:11:31;7.27;;;4.83;;
9260;SDS011;4667;42.726;23.252;2023-05-07T04:13:58;6.80;;;5.63;;
9260;SDS011;4667;42.726;23.252;2023-05-07T04:16:26;7.17;;;5.40;;
9260;SDS011;4667;42.726;23.252;2023-05-07T04:18:53;6.87;;;5.57;;
9260;SDS011;4667;42.726;23.252;2023-05-07T04:21:20;8.53;;;4.73;;
9260;SDS011;4667;42.726;23.252;2023-05-07T04:23:47;6.47;;;5.10;;
9260;SDS011;4667;42.726;23.252;2023-05-07T04:26:14;6.57;;;4.70;;
9260;SDS011;4667;42.726;23.252;2023-05-07T04:28:42;6.60;;;4.83;;
9260;SDS011;4667;42.726;23.252;2023-05-07T04:31:10;5.07;;;4.53;;
9260;SDS011;4667;42.726;23.252;2023-05-07T04:33:38;7.17;;;5.03;;
9260;SDS011;4667;42.726;23.252;2023-05-07T04:36:05;6.10;;;5.13;;
9260;SDS011;4667;42.726;23.252;2023-05-07T04:38:32;6.30;;;5.20;;
9260;SDS011;4667;42.726;23.252;2023-05-07T04:41:02;6.83;;;5.03;;
9260;SDS011;4667;42.726;23.252;2023-05-07T04:43:30;8.00;;;5.77;;
9260;SDS011;4667;42.726;23.252;2023-05-07T04:45:57;8.07;;;5.13;;
9260;SDS011;4667;42.726;23.252;2023-05-07T04:48:24;8.70;;;5.23;;
9260;SDS011;4667;42.726;23.252;2023-05-07T04:50:52;7.70;;;5.73;;
9260;SDS011;4667;42.726;23.252;2023-05-07T04:53:19;5.83;;;4.93;;
9260;SDS011;4667;42.726;23.252;2023-05-07T04:55:46;6.37;;;5.50;;
9260;SDS011;4667;42.726;23.252;2023-05-07T04:58:13;11.90;;;5.33;;
9260;SDS011;4667;42.726;23.252;2023-05-07T05:00:40;5.83;;;4.90;;
9260;SDS011;4667;42.726;23.252;2023-05-07T05:03:07;6.17;;;4.80;;
9260;SDS011;4667;42.726;23.252;2023-05-07T05:05:34;11.47;;;5.57;;
9260;SDS011;4667;42.726;23.252;2023-05-07T05:08:02;7.43;;;5.87;;
9260;SDS011;4667;42.726;23.252;2023-05-07T05:10:29;5.60;;;5.00;;
9260;SDS011;4667;42.726;23.252;2023-05-07T05:12:56;11.37;;;5.10;;
9260;SDS011;4667;42.726;23.252;2023-05-07T05:15:23;8.07;;;6.13;;
9260;SDS011;4667;42.726;23.252;2023-05-07T05:17:49;8.37;;;5.03;;
9260;SDS011;4667;42.726;23.252;2023-05-07T05:20:16;13.90;;;5.50;;
9260;SDS011;4667;42.726;23.252;2023-05-07T05:22:43;8.33;;;5.17;;
9260;SDS011;4667;42.726;23.252;2023-05-07T05:25:11;7.60;;;5.33;;
9260;SDS011;4667;42.726;23.252;2023-05-07T05:27:38;8.37;;;5.83;;
9260;SDS011;4667;42.726;23.252;2023-05-07T05:30:05;8.63;;;5.87;;
9260;SDS011;4667;42.726;23.252;2023-05-07T05:32:37;9.87;;;5.50;;
9260;SDS011;4667;42.726;23.252;2023-05-07T05:35:08;10.83;;;5.20;;
9260;SDS011;4667;42.726;23.252;2023-05-07T05:37:36;8.07;;;6.13;;
9260;SDS011;4667;42.726;23.252;2023-05-07T05:40:03;9.87;;;6.67;;
9260;SDS011;4667;42.726;23.252;2023-05-07T05:42:31;7.33;;;6.23;;
9260;SDS011;4667;42.726;23.252;2023-05-07T05:44:58;11.43;;;6.47;;
9260;SDS011;4667;42.726;23.252;2023-05-07T05:47:25;8.50;;;6.13;;
9260;SDS011;4667;42.726;23.252;2023-05-07T05:49:51;9.20;;;5.63;;
9260;SDS011;4667;42.726;23.252;2023-05-07T05:52:18;9.63;;;6.23;;
9260;SDS011;4667;42.726;23.252;2023-05-07T05:54:45;12.00;;;6.33;;
9260;SDS011;4667;42.726;23.252;2023-05-07T05:57:11;6.00;;;5.10;;
9260;SDS011;4667;42.726;23.252;2023-05-07T05:59:39;8.53;;;5.93;;
9260;SDS011;4667;42.726;23.252;2023-05-07T06:02:06;7.17;;;5.83;;
9260;SDS011;4667;42.726;23.252;2023-05-07T06:04:33;9.10;;;6.37;;
9260;SDS011;4667;42.726;23.252;2023-05-07T06:07:00;8.00;;;5.93;;
9260;SDS011;4667;42.726;23.252;2023-05-07T06:09:26;11.30;;;6.60;;
9260;SDS011;4667;42.726;23.252;2023-05-07T06:11:53;7.93;;;5.77;;
9260;SDS011;4667;42.726;23.252;2023-05-07T06:14:20;9.40;;;6.00;;
9260;SDS011;4667;42.726;23.252;2023-05-07T06:16:48;9.50;;;6.00;;
9260;SDS011;4667;42.726;23.252;2023-05-07T06:19:14;8.37;;;5.63;;
9260;SDS011;4667;42.726;23.252;2023-05-07T06:21:43;9.57;;;5.87;;
9260;SDS011;4667;42.726;23.252;2023-05-07T06:24:09;7.73;;;5.80;;
9260;SDS011;4667;42.726;23.252;2023-05-07T06:26:36;8.53;;;5.87;;
9260;SDS011;4667;42.726;23.252;2023-05-07T06:29:03;8.67;;;6.17;;
9260;SDS011;4667;42.726;23.252;2023-05-07T06:31:30;9.17;;;6.63;;
9260;SDS011;4667;42.726;23.252;2023-05-07T06:33:59;7.30;;;5.60;;
9260;SDS011;4667;42.726;23.252;2023-05-07T06:36:27;9.03;;;6.17;;
9260;SDS011;4667;42.726;23.252;2023-05-07T06:38:54;9.03;;;6.47;;
9260;SDS011;4667;42.726;23.252;2023-05-07T06:41:21;8.37;;;5.73;;
9260;SDS011;4667;42.726;23.252;2023-05-07T06:43:47;12.07;;;8.47;;
9260;SDS011;4667;42.726;23.252;2023-05-07T06:46:15;8.87;;;6.03;;
9260;SDS011;4667;42.726;23.252;2023-05-07T06:48:42;9.73;;;6.10;;
9260;SDS011;4667;42.726;23.252;2023-05-07T06:51:10;7.90;;;5.63;;
9260;SDS011;4667;42.726;23.252;2023-05-07T06:53:36;8.13;;;6.17;;
9260;SDS011;4667;42.726;23.252;2023-05-07T06:56:03;6.63;;;5.67;;
9260;SDS011;4667;42.726;23.252;2023-05-07T06:58:30;9.37;;;6.27;;
9260;SDS011;4667;42.726;23.252;2023-05-07T07:00:57;11.00;;;6.20;;
9260;SDS011;4667;42.726;23.252;2023-05-07T07:03:24;6.47;;;5.30;;
9260;SDS011;4667;42.726;23.252;2023-05-07T07:05:51;7.10;;;5.83;;
9260;SDS011;4667;42.726;23.252;2023-05-07T07:08:19;10.10;;;7.10;;
9260;SDS011;4667;42.726;23.252;2023-05-07T07:10:47;7.50;;;5.30;;
9260;SDS011;4667;42.726;23.252;2023-05-07T07:13:14;10.47;;;6.33;;
9260;SDS011;4667;42.726;23.252;2023-05-07T07:15:41;6.03;;;4.60;;
9260;SDS011;4667;42.726;23.252;2023-05-07T07:18:07;7.40;;;5.43;;
9260;SDS011;4667;42.726;23.252;2023-05-07T07:20:34;7.60;;;5.93;;
9260;SDS011;4667;42.726;23.252;2023-05-07T07:23:01;7.73;;;5.77;;
9260;SDS011;4667;42.726;23.252;2023-05-07T07:25:30;8.50;;;5.20;;
9260;SDS011;4667;42.726;23.252;2023-05-07T07:27:56;8.57;;;6.07;;
9260;SDS011;4667;42.726;23.252;2023-05-07T07:30:23;9.17;;;6.83;;
9260;SDS011;4667;42.726;23.252;2023-05-07T07:32:50;7.87;;;5.83;;
9260;SDS011;4667;42.726;23.252;2023-05-07T07:35:17;10.40;;;6.77;;
9260;SDS011;4667;42.726;23.252;2023-05-07T07:37:44;13.17;;;5.77;;
9260;SDS011;4667;42.726;23.252;2023-05-07T07:40:11;6.93;;;5.73;;
9260;SDS011;4667;42.726;23.252;2023-05-07T07:42:42;6.77;;;4.70;;
9260;SDS011;4667;42.726;23.252;2023-05-07T07:45:08;5.80;;;4.33;;
9260;SDS011;4667;42.726;23.252;2023-05-07T07:47:36;6.70;;;4.53;;
9260;SDS011;4667;42.726;23.252;2023-05-07T07:50:03;5.83;;;4.47;;
9260;SDS011;4667;42.726;23.252;2023-05-07T07:52:30;8.00;;;4.53;;
9260;SDS011;4667;42.726;23.252;2023-05-07T07:54:57;5.40;;;4.70;;
9260;SDS011;4667;42.726;23.252;2023-05-07T07:57:24;7.37;;;5.87;;
9260;SDS011;4667;42.726;23.252;2023-05-07T07:59:52;6.83;;;5.17;;
9260;SDS011;4667;42.726;23.252;2023-05-07T08:02:19;6.53;;;4.53;;
9260;SDS011;4667;42.726;23.252;2023-05-07T08:04:45;6.07;;;4.73;;
9260;SDS011;4667;42.726;23.252;2023-05-07T08:07:12;5.80;;;4.43;;
9260;SDS011;4667;42.726;23.252;2023-05-07T08:09:39;5.67;;;4.27;;
9260;SDS011;4667;42.726;23.252;2023-05-07T08:12:07;5.57;;;3.97;;
9260;SDS011;4667;42.726;23.252;2023-05-07T08:14:34;5.93;;;4.45;;
9260;SDS011;4667;42.726;23.252;2023-05-07T08:17:04;7.20;;;4.93;;
9260;SDS011;4667;42.726;23.252;2023-05-07T08:19:31;7.93;;;4.82;;
9260;SDS011;4667;42.726;23.252;2023-05-07T08:21:58;5.25;;;3.65;;
9260;SDS011;4667;42.726;23.252;2023-05-07T08:24:25;7.67;;;5.07;;
9260;SDS011;4667;42.726;23.252;2023-05-07T08:26:51;5.20;;;4.30;;
9260;SDS011;4667;42.726;23.252;2023-05-07T08:29:19;5.27;;;4.23;;
9260;SDS011;4667;42.726;23.252;2023-05-07T08:31:46;5.77;;;3.87;;
9260;SDS011;4667;42.726;23.252;2023-05-07T08:34:13;6.68;;;3.75;;
9260;SDS011;4667;42.726;23.252;2023-05-07T08:36:40;6.57;;;3.85;;
9260;SDS011;4667;42.726;23.252;2023-05-07T08:39:07;6.13;;;3.75;;
9260;SDS011;4667;42.726;23.252;2023-05-07T08:41:34;5.25;;;3.72;;
9260;SDS011;4667;42.726;23.252;2023-05-07T08:44:00;4.65;;;3.33;;
9260;SDS011;4667;42.726;23.252;2023-05-07T08:46:30;3.22;;;2.92;;
9260;SDS011;4667;42.726;23.252;2023-05-07T08:48:57;2.97;;;2.50;;
9260;SDS011;4667;42.726;23.252;2023-05-07T08:51:25;5.28;;;2.70;;
9260;SDS011;4667;42.726;23.252;2023-05-07T08:53:52;3.97;;;3.17;;
9260;SDS011;4667;42.726;23.252;2023-05-07T08:56:18;4.75;;;2.67;;
9260;SDS011;4667;42.726;23.252;2023-05-07T08:58:46;3.67;;;2.95;;
9260;SDS011;4667;42.726;23.252;2023-05-07T09:01:13;7.40;;;2.95;;
9260;SDS011;4667;42.726;23.252;2023-05-07T09:03:40;4.82;;;2.83;;
9260;SDS011;4667;42.726;23.252;2023-05-07T09:06:07;4.60;;;3.20;;
9260;SDS011;4667;42.726;23.252;2023-05-07T09:08:38;3.65;;;2.47;;
9260;SDS011;4667;42.726;23.252;2023-05-07T09:11:05;4.55;;;3.30;;
9260;SDS011;4667;42.726;23.252;2023-05-07T09:13:31;5.57;;;2.80;;
9260;SDS011;4667;42.726;23.252;2023-05-07T09:15:58;3.47;;;2.97;;
9260;SDS011;4667;42.726;23.252;2023-05-07T09:18:25;4.72;;;2.75;;
9260;SDS011;4667;42.726;23.252;2023-05-07T09:20:52;4.65;;;3.08;;
9260;SDS011;4667;42.726;23.252;2023-05-07T09:23:18;3.17;;;2.78;;
9260;SDS011;4667;42.726;23.252;2023-05-07T09:25:47;5.50;;;2.80;;
9260;SDS011;4667;42.726;23.252;2023-05-07T09:28:14;2.28;;;2.05;;
9260;SDS011;4667;42.726;23.252;2023-05-07T09:30:40;3.00;;;2.53;;
9260;SDS011;4667;42.726;23.252;2023-05-07T09:33:07;3.08;;;2.22;;
9260;SDS011;4667;42.726;23.252;2023-05-07T09:35:33;2.25;;;1.90;;
9260;SDS011;4667;42.726;23.252;2023-05-07T09:38:00;4.35;;;2.55;;
9260;SDS011;4667;42.726;23.252;2023-05-07T09:40:28;2.42;;;2.22;;
9260;SDS011;4667;42.726;23.252;2023-05-07T09:42:56;5.45;;;2.83;;
9260;SDS011;4667;42.726;23.252;2023-05-07T09:45:34;5.70;;;2.58;;
9260;SDS011;4667;42.726;23.252;2023-05-07T09:48:01;3.58;;;2.35;;
9260;SDS011;4667;42.726;23.252;2023-05-07T09:50:32;3.58;;;3.00;;
9260;SDS011;4667;42.726;23.252;2023-05-07T09:53:01;3.28;;;2.17;;
9260;SDS011;4667;42.726;23.252;2023-05-07T09:55:29;2.58;;;1.80;;
9260;SDS011;4667;42.726;23.252;2023-05-07T09:57:57;2.83;;;2.53;;
9260;SDS011;4667;42.726;23.252;2023-05-07T10:00:24;3.63;;;2.20;;
9260;SDS011;4667;42.726;23.252;2023-05-07T10:02:52;3.55;;;2.33;;
9260;SDS011;4667;42.726;23.252;2023-05-07T10:05:19;2.55;;;2.13;;
9260;SDS011;4667;42.726;23.252;2023-05-07T10:07:46;2.75;;;2.17;;
9260;SDS011;4667;42.726;23.252;2023-05-07T10:10:13;2.55;;;2.08;;
9260;SDS011;4667;42.726;23.252;2023-05-07T10:12:40;3.05;;;1.92;;
9260;SDS011;4667;42.726;23.252;2023-05-07T10:15:09;2.20;;;1.70;;
9260;SDS011;4667;42.726;23.252;2023-05-07T10:17:36;3.53;;;2.20;;
9260;SDS011;4667;42.726;23.252;2023-05-07T10:20:04;2.67;;;2.20;;
9260;SDS011;4667;42.726;23.252;2023-05-07T10:22:33;3.13;;;1.80;;
9260;SDS011;4667;42.726;23.252;2023-05-07T10:25:05;1.95;;;1.70;;
9260;SDS011;4667;42.726;23.252;2023-05-07T10:27:36;1.80;;;1.58;;
9260;SDS011;4667;42.726;23.252;2023-05-07T10:30:06;1.85;;;1.70;;
9260;SDS011;4667;42.726;23.252;2023-05-07T10:32:41;2.00;;;1.60;;
9260;SDS011;4667;42.726;23.252;2023-05-07T10:35:14;3.08;;;1.83;;
9260;SDS011;4667;42.726;23.252;2023-05-07T10:37:44;2.05;;;1.70;;
9260;SDS011;4667;42.726;23.252;2023-05-07T10:40:11;2.28;;;2.08;;
9260;SDS011;4667;42.726;23.252;2023-05-07T10:42:49;3.30;;;1.75;;
9260;SDS011;4667;42.726;23.252;2023-05-07T10:45:25;1.77;;;1.48;;
9260;SDS011;4667;42.726;23.252;2023-05-07T10:48:08;2.22;;;1.63;;
9260;SDS011;4667;42.726;23.252;2023-05-07T10:50:36;4.30;;;1.98;;
9260;SDS011;4667;42.726;23.252;2023-05-07T10:53:23;2.38;;;1.40;;
9260;SDS011;4667;42.726;23.252;2023-05-07T10:55:52;1.90;;;1.70;;
9260;SDS011;4667;42.726;23.252;2023-05-07T10:58:53;2.65;;;1.92;;
9260;SDS011;4667;42.726;23.252;2023-05-07T11:04:20;1.83;;;1.40;;
9260;SDS011;4667;42.726;23.252;2023-05-07T11:10:00;1.80;;;1.52;;
9260;SDS011;4667;42.726;23.252;2023-05-07T11:15:14;3.08;;;1.40;;
9260;SDS011;4667;42.726;23.252;2023-05-07T11:26:26;3.72;;;1.45;;
9260;SDS011;4667;42.726;23.252;2023-05-07T11:28:54;2.17;;;1.58;;
9260;SDS011;4667;42.726;23.252;2023-05-07T11:31:22;1.83;;;1.65;;
9260;SDS011;4667;42.726;23.252;2023-05-07T11:33:53;4.35;;;1.80;;
9260;SDS011;4667;42.726;23.252;2023-05-07T11:36:23;4.07;;;2.03;;
9260;SDS011;4667;42.726;23.252;2023-05-07T11:38:53;1.63;;;1.52;;
9260;SDS011;4667;42.726;23.252;2023-05-07T11:41:32;3.30;;;1.90;;
9260;SDS011;4667;42.726;23.252;2023-05-07T11:44:02;1.52;;;1.30;;
9260;SDS011;4667;42.726;23.252;2023-05-07T11:46:29;1.75;;;1.33;;
9260;SDS011;4667;42.726;23.252;2023-05-07T11:48:58;1.38;;;1.17;;
9260;SDS011;4667;42.726;23.252;2023-05-07T11:51:35;3.95;;;1.63;;
9260;SDS011;4667;42.726;23.252;2023-05-07T11:54:03;2.03;;;1.65;;
9260;SDS011;4667;42.726;23.252;2023-05-07T11:56:33;1.90;;;1.48;;
9260;SDS011;4667;42.726;23.252;2023-05-07T11:59:02;1.65;;;1.42;;
9260;SDS011;4667;42.726;23.252;2023-05-07T12:01:34;1.85;;;1.60;;
9260;SDS011;4667;42.726;23.252;2023-05-07T12:04:06;2.80;;;1.80;;
9260;SDS011;4667;42.726;23.252;2023-05-07T12:06:36;1.70;;;1.42;;
9260;SDS011;4667;42.726;23.252;2023-05-07T12:09:04;4.00;;;2.00;;
9260;SDS011;4667;42.726;23.252;2023-05-07T12:11:36;3.08;;;2.28;;
9260;SDS011;4667;42.726;23.252;2023-05-07T12:14:04;2.08;;;1.50;;
9260;SDS011;4667;42.726;23.252;2023-05-07T12:16:45;2.75;;;1.90;;
9260;SDS011;4667;42.726;23.252;2023-05-07T12:19:14;1.98;;;1.63;;
9260;SDS011;4667;42.726;23.252;2023-05-07T12:21:41;2.15;;;1.52;;
9260;SDS011;4667;42.726;23.252;2023-05-07T12:24:08;2.85;;;2.53;;
9260;SDS011;4667;42.726;23.252;2023-05-07T12:26:37;1.92;;;1.40;;
9260;SDS011;4667;42.726;23.252;2023-05-07T12:29:05;2.17;;;1.50;;
9260;SDS011;4667;42.726;23.252;2023-05-07T12:31:33;2.33;;;1.50;;
9260;SDS011;4667;42.726;23.252;2023-05-07T12:34:00;3.03;;;1.40;;
9260;SDS011;4667;42.726;23.252;2023-05-07T12:36:35;2.15;;;1.50;;
9260;SDS011;4667;42.726;23.252;2023-05-07T12:39:03;1.95;;;1.60;;
9260;SDS011;4667;42.726;23.252;2023-05-07T12:41:30;3.55;;;1.58;;
9260;SDS011;4667;42.726;23.252;2023-05-07T12:43:57;1.55;;;1.38;;
9260;SDS011;4667;42.726;23.252;2023-05-07T12:46:25;1.50;;;1.40;;
9260;SDS011;4667;42.726;23.252;2023-05-07T12:48:51;1.88;;;1.50;;
9260;SDS011;4667;42.726;23.252;2023-05-07T12:51:19;1.73;;;1.63;;
9260;SDS011;4667;42.726;23.252;2023-05-07T12:53:47;1.85;;;1.50;;
9260;SDS011;4667;42.726;23.252;2023-05-07T12:56:15;2.38;;;2.17;;
9260;SDS011;4667;42.726;23.252;2023-05-07T12:58:41;5.05;;;2.00;;
9260;SDS011;4667;42.726;23.252;2023-05-07T13:01:08;1.63;;;1.30;;
9260;SDS011;4667;42.726;23.252;2023-05-07T13:03:36;2.47;;;1.48;;
9260;SDS011;4667;42.726;23.252;2023-05-07T13:06:04;2.05;;;1.17;;
9260;SDS011;4667;42.726;23.252;2023-05-07T13:08:32;1.60;;;1.40;;
9260;SDS011;4667;42.726;23.252;2023-05-07T13:11:00;2.55;;;1.70;;
9260;SDS011;4667;42.726;23.252;2023-05-07T13:13:28;2.15;;;1.73;;
9260;SDS011;4667;42.726;23.252;2023-05-07T13:15:55;1.63;;;1.42;;
9260;SDS011;4667;42.726;23.252;2023-05-07T13:18:21;1.50;;;1.20;;
9260;SDS011;4667;42.726;23.252;2023-05-07T13:20:49;2.92;;;1.70;;
9260;SDS011;4667;42.726;23.252;2023-05-07T13:23:16;2.45;;;1.73;;
9260;SDS011;4667;42.726;23.252;2023-05-07T13:25:42;1.60;;;1.50;;
9260;SDS011;4667;42.726;23.252;2023-05-07T13:28:10;2.67;;;1.70;;
9260;SDS011;4667;42.726;23.252;2023-05-07T13:30:37;1.80;;;1.70;;
9260;SDS011;4667;42.726;23.252;2023-05-07T13:33:04;1.75;;;1.50;;
9260;SDS011;4667;42.726;23.252;2023-05-07T13:35:33;1.52;;;1.30;;
9260;SDS011;4667;42.726;23.252;2023-05-07T13:38:02;1.60;;;1.50;;
9260;SDS011;4667;42.726;23.252;2023-05-07T13:40:29;2.55;;;1.48;;
9260;SDS011;4667;42.726;23.252;2023-05-07T13:42:56;2.22;;;1.55;;
9260;SDS011;4667;42.726;23.252;2023-05-07T13:45:25;2.75;;;1.48;;
9260;SDS011;4667;42.726;23.252;2023-05-07T13:47:57;1.60;;;1.45;;
9260;SDS011;4667;42.726;23.252;2023-05-07T13:50:24;3.85;;;1.75;;
9260;SDS011;4667;42.726;23.252;2023-05-07T13:52:51;3.45;;;1.63;;
9260;SDS011;4667;42.726;23.252;2023-05-07T13:55:19;2.38;;;1.73;;
9260;SDS011;4667;42.726;23.252;2023-05-07T13:57:46;1.85;;;1.60;;
9260;SDS011;4667;42.726;23.252;2023-05-07T14:00:13;3.17;;;1.85;;
9260;SDS011;4667;42.726;23.252;2023-05-07T14:02:43;1.80;;;1.52;;
9260;SDS011;4667;42.726;23.252;2023-05-07T14:05:24;2.78;;;1.90;;
9260;SDS011;4667;42.726;23.252;2023-05-07T14:07:53;1.60;;;1.48;;
9260;SDS011;4667;42.726;23.252;2023-05-07T14:10:19;1.73;;;1.50;;
9260;SDS011;4667;42.726;23.252;2023-05-07T14:12:46;2.00;;;1.70;;
9260;SDS011;4667;42.726;23.252;2023-05-07T14:15:13;2.45;;;1.80;;
9260;SDS011;4667;42.726;23.252;2023-05-07T14:17:43;2.00;;;1.58;;
9260;SDS011;4667;42.726;23.252;2023-05-07T14:20:10;1.83;;;1.60;;
9260;SDS011;4667;42.726;23.252;2023-05-07T14:22:37;4.13;;;1.85;;
9260;SDS011;4667;42.726;23.252;2023-05-07T14:25:05;3.13;;;1.95;;
9260;SDS011;4667;42.726;23.252;2023-05-07T14:27:32;1.45;;;1.30;;
9260;SDS011;4667;42.726;23.252;2023-05-07T14:29:59;1.98;;;1.67;;
9260;SDS011;4667;42.726;23.252;2023-05-07T14:32:25;3.28;;;1.75;;
9260;SDS011;4667;42.726;23.252;2023-05-07T14:34:54;2.35;;;1.92;;
9260;SDS011;4667;42.726;23.252;2023-05-07T14:37:20;2.30;;;1.80;;
9260;SDS011;4667;42.726;23.252;2023-05-07T14:39:47;8.38;;;2.08;;
9260;SDS011;4667;42.726;23.252;2023-05-07T14:42:13;3.85;;;2.35;;
9260;SDS011;4667;42.726;23.252;2023-05-07T14:44:40;1.83;;;1.65;;
9260;SDS011;4667;42.726;23.252;2023-05-07T14:47:08;2.38;;;2.13;;
9260;SDS011;4667;42.726;23.252;2023-05-07T14:49:35;2.45;;;1.70;;
9260;SDS011;4667;42.726;23.252;2023-05-07T14:52:03;2.05;;;1.85;;
9260;SDS011;4667;42.726;23.252;2023-05-07T14:54:33;2.30;;;1.92;;
9260;SDS011;4667;42.726;23.252;2023-05-07T14:57:02;1.95;;;1.50;;
9260;SDS011;4667;42.726;23.252;2023-05-07T14:59:29;2.22;;;1.60;;
9260;SDS011;4667;42.726;23.252;2023-05-07T15:02:03;2.60;;;1.58;;
9260;SDS011;4667;42.726;23.252;2023-05-07T15:04:30;1.95;;;1.50;;
9260;SDS011;4667;42.726;23.252;2023-05-07T15:06:57;3.63;;;1.60;;
9260;SDS011;4667;42.726;23.252;2023-05-07T15:09:26;2.17;;;1.50;;
9260;SDS011;4667;42.726;23.252;2023-05-07T15:11:52;1.75;;;1.60;;
9260;SDS011;4667;42.726;23.252;2023-05-07T15:14:20;1.75;;;1.60;;
9260;SDS011;4667;42.726;23.252;2023-05-07T15:17:01;2.63;;;2.08;;
9260;SDS011;4667;42.726;23.252;2023-05-07T15:19:27;1.92;;;1.60;;
9260;SDS011;4667;42.726;23.252;2023-05-07T15:21:54;2.25;;;1.80;;